Time;durP1;ratioP1;P1;durP2;ratioP2;P2;SDS_P1;SDS_P2;PMS_P1;PMS_P2;Temp;Humidity;BMP_temperature;BMP_pressure;BME280_temperature;BME280_humidity;BME280_pressure;Samples;Min_cycle;Max_cycle;Signal;HPM_P1;HPM_P2
2022/07/08 00:01:12;;;;;;;6.30;2.25;;;;;;;16.81;60.97;102808.75;3611620;39;20058;-63
2022/07/08 00:03:37;;;;;;;7.82;2.17;;;;;;;16.62;60.65;102780.84;3610576;39;20070;-63
2022/07/08 00:06:03;;;;;;;6.57;2.22;;;;;;;16.78;61.35;102814.34;3612905;39;20046;-63
2022/07/08 00:08:30;;;;;;;6.88;2.03;;;;;;;16.74;60.91;102804.56;3610958;39;21934;-63
2022/07/08 00:10:57;;;;;;;8.65;2.10;;;;;;;16.67;60.84;102800.44;3609948;39;20047;-63
2022/07/08 00:13:23;;;;;;;7.07;1.80;;;;;;;16.72;60.70;102814.66;3611547;39;20310;-62
2022/07/08 00:15:49;;;;;;;8.98;2.28;;;;;;;16.63;61.08;102799.75;3611136;39;20055;-63
2022/07/08 00:18:14;;;;;;;8.43;2.20;;;;;;;16.66;60.97;102813.16;3610679;39;20099;-63
2022/07/08 00:20:40;;;;;;;7.22;1.90;;;;;;;16.63;61.37;102812.47;3611868;39;20063;-63
2022/07/08 00:23:06;;;;;;;9.65;2.50;;;;;;;16.57;61.07;102797.38;3612294;39;20063;-63
2022/07/08 00:25:31;;;;;;;8.77;2.45;;;;;;;16.59;60.94;102809.03;3609945;39;20107;-63
2022/07/08 00:27:57;;;;;;;9.15;2.20;;;;;;;16.56;61.67;102808.34;3611530;39;20099;-63
2022/07/08 00:30:23;;;;;;;7.43;1.90;;;;;;;16.53;61.33;102805.78;3611796;39;20061;-63
2022/07/08 00:32:48;;;;;;;10.60;2.60;;;;;;;16.53;61.47;102809.38;3599635;39;20397;-62
2022/07/08 00:35:14;;;;;;;8.65;2.42;;;;;;;16.46;61.33;102800.69;3612384;39;20055;-63
2022/07/08 00:37:40;;;;;;;6.97;2.10;;;;;;;16.50;61.56;102811.38;3611660;39;20072;-63
2022/07/08 00:40:06;;;;;;;6.05;2.10;;;;;;;16.47;61.22;102813.31;3612277;39;20066;-63
2022/07/08 00:42:32;;;;;;;8.65;2.00;;;;;;;16.43;61.09;102803.59;3610352;39;20051;-63
2022/07/08 00:44:58;;;;;;;9.30;2.70;;;;;;;16.39;61.80;102807.41;3612943;39;20066;-63
2022/07/08 00:47:23;;;;;;;8.75;2.17;;;;;;;16.41;61.80;102805.50;3611645;39;20119;-63
2022/07/08 00:49:52;;;;;;;7.20;2.35;;;;;;;16.24;61.93;102784.72;3601947;39;20401;-63
2022/07/08 00:52:18;;;;;;;9.80;2.47;;;;;;;16.06;62.16;102760.41;3612048;39;20423;-63
2022/07/08 00:54:45;;;;;;;7.50;2.15;;;;;;;16.21;62.23;102808.44;3610778;39;20058;-63
2022/07/08 00:57:12;;;;;;;6.10;2.30;;;;;;;16.23;62.65;102815.50;3611173;39;20393;-63
2022/07/08 00:59:38;;;;;;;9.35;2.13;;;;;;;16.17;62.82;102815.84;3607310;39;20046;-63
2022/07/08 01:02:04;;;;;;;11.27;2.70;;;;;;;16.15;62.50;102820.47;3611327;39;20132;-63
2022/07/08 01:04:31;;;;;;;6.68;2.60;;;;;;;16.13;62.97;102822.38;3609692;39;20046;-63
2022/07/08 01:06:57;;;;;;;5.72;2.20;;;;;;;16.10;63.22;102816.25;3610956;39;20649;-63
2022/07/08 01:09:23;;;;;;;6.20;2.00;;;;;;;16.06;63.02;102828.25;3610126;39;20065;-63
2022/07/08 01:11:49;;;;;;;7.00;2.30;;;;;;;15.97;63.23;102805.19;3610300;39;20093;-63
2022/07/08 01:14:16;;;;;;;10.07;2.40;;;;;;;15.92;63.88;102816.28;3610179;39;20542;-63
2022/07/08 01:16:42;;;;;;;8.88;2.40;;;;;;;15.62;64.34;102788.00;3610676;39;20073;-63
2022/07/08 01:19:08;;;;;;;10.13;2.33;;;;;;;15.78;64.68;102810.69;3609710;39;20043;-63
2022/07/08 01:21:33;;;;;;;11.88;2.30;;;;;;;15.65;64.97;102810.41;3608489;39;20147;-63
2022/07/08 01:23:59;;;;;;;9.23;2.60;;;;;;;15.61;64.75;102810.66;3611023;39;20155;-63
2022/07/08 01:26:26;;;;;;;7.22;2.42;;;;;;;15.45;65.60;102794.31;3612671;39;20038;-63
2022/07/08 01:28:51;;;;;;;6.30;2.13;;;;;;;15.44;65.83;102812.38;3610632;39;20079;-63
2022/07/08 01:31:17;;;;;;;11.38;2.55;;;;;;;15.35;65.73;102812.88;3610701;39;20058;-63
2022/07/08 01:33:43;;;;;;;9.32;2.67;;;;;;;15.33;66.07;102814.78;3609556;39;20070;-63
2022/07/08 01:36:08;;;;;;;9.63;2.47;;;;;;;15.30;66.50;102820.34;3610598;39;20059;-63
2022/07/08 01:38:34;;;;;;;12.07;2.70;;;;;;;15.23;66.54;102813.47;3608301;39;20046;-64
2022/07/08 01:41:00;;;;;;;6.25;2.60;;;;;;;14.89;66.68;102768.22;3610742;39;20051;-62
2022/07/08 01:43:26;;;;;;;10.40;2.50;;;;;;;15.17;67.14;102824.63;3610920;39;20077;-63
2022/07/08 01:45:51;;;;;;;7.07;2.40;;;;;;;15.10;67.26;102802.38;3611013;39;20363;-63
2022/07/08 01:48:17;;;;;;;8.38;2.40;;;;;;;15.05;67.29;102809.84;3609183;39;20055;-63
2022/07/08 01:50:43;;;;;;;9.73;3.08;;;;;;;14.94;67.49;102804.97;3609552;39;20066;-63
2022/07/08 01:53:09;;;;;;;8.50;2.75;;;;;;;14.89;67.91;102800.72;3611344;39;20058;-64
2022/07/08 01:55:34;;;;;;;11.60;2.80;;;;;;;14.82;67.74;102792.00;3610623;39;20109;-63
2022/07/08 01:58:00;;;;;;;6.95;2.20;;;;;;;14.76;68.30;102793.16;3611557;39;20058;-63
2022/07/08 02:00:25;;;;;;;9.88;2.47;;;;;;;14.77;68.47;102799.47;3610760;39;20087;-63
2022/07/08 02:02:51;;;;;;;10.75;2.72;;;;;;;14.58;68.52;102775.97;3610036;39;20067;-63
2022/07/08 02:05:17;;;;;;;12.15;2.80;;;;;;;14.62;68.40;102793.84;3611037;39;20057;-63
2022/07/08 02:07:43;;;;;;;12.57;3.05;;;;;;;14.66;68.89;102799.97;3611493;39;20051;-63
2022/07/08 02:10:10;;;;;;;10.43;2.50;;;;;;;14.46;69.09;102781.03;3612750;39;20082;-63
2022/07/08 02:12:36;;;;;;;7.53;2.70;;;;;;;14.62;69.33;102811.91;3608702;39;20081;-63
2022/07/08 02:15:06;;;;;;;8.52;2.75;;;;;;;14.56;69.46;102813.06;3611521;39;20420;-63
2022/07/08 02:17:41;;;;;;;10.30;2.65;;;;;;;14.58;69.33;102816.56;3609199;39;20366;-63
2022/07/08 02:20:11;;;;;;;10.45;2.70;;;;;;;14.60;69.30;102820.09;3609612;39;20065;-63
2022/07/08 02:22:37;;;;;;;10.40;2.55;;;;;;;14.63;69.35;102811.81;3608619;39;20090;-64
2022/07/08 02:25:04;;;;;;;8.20;2.28;;;;;;;14.66;69.79;102812.66;3603756;39;20049;-63
2022/07/08 02:27:31;;;;;;;8.05;2.83;;;;;;;14.63;69.63;102811.81;3597592;39;20062;-63
2022/07/08 02:29:57;;;;;;;9.27;2.85;;;;;;;14.63;69.46;102806.41;3610668;39;20294;-63
2022/07/08 02:32:23;;;;;;;10.70;2.80;;;;;;;14.69;69.18;102813.38;3599475;39;20054;-62
2022/07/08 02:34:48;;;;;;;10.27;2.88;;;;;;;14.56;69.31;102786.00;3610749;39;20659;-63
2022/07/08 02:37:15;;;;;;;7.57;3.00;;;;;;;14.66;69.39;102801.81;3610145;39;20058;-60
2022/07/08 02:39:41;;;;;;;10.88;2.90;;;;;;;14.73;69.13;102823.09;3609557;39;20053;-61
2022/07/08 02:42:09;;;;;;;8.40;2.70;;;;;;;14.70;69.26;102812.41;3610498;39;20035;-61
2022/07/08 02:44:38;;;;;;;6.80;2.50;;;;;;;14.73;69.52;102812.25;3608984;39;20063;-61
2022/07/08 02:47:05;;;;;;;6.32;2.47;;;;;;;14.76;69.27;102816.66;3609360;39;20409;-62
2022/07/08 02:49:31;;;;;;;8.40;2.80;;;;;;;14.78;69.33;102807.53;3612917;39;20293;-61
2022/07/08 02:51:56;;;;;;;7.93;2.33;;;;;;;14.81;68.86;102815.50;3613261;39;20055;-62
2022/07/08 02:54:22;;;;;;;6.35;2.42;;;;;;;14.82;69.07;102813.66;3609409;39;20046;-62
2022/07/08 02:56:48;;;;;;;7.40;2.50;;;;;;;14.78;68.86;102801.19;3608442;39;20058;-61
2022/07/08 02:59:13;;;;;;;9.30;2.88;;;;;;;14.80;69.07;102808.31;3610685;39;20263;-62
2022/07/08 03:01:39;;;;;;;9.57;2.75;;;;;;;14.80;68.79;102812.84;3608736;39;20058;-62
2022/07/08 03:04:05;;;;;;;8.27;2.67;;;;;;;14.78;68.58;102812.94;3609206;39;20054;-62
2022/07/08 03:06:30;;;;;;;8.02;2.45;;;;;;;14.75;68.60;102813.09;3601016;39;20063;-62
2022/07/08 03:08:56;;;;;;;6.78;2.40;;;;;;;14.69;69.05;102804.38;3610402;39;20503;-62
2022/07/08 03:11:21;;;;;;;14.63;3.28;;;;;;;14.34;69.20;102750.06;3612226;39;20289;-62
2022/07/08 03:13:47;;;;;;;7.35;2.58;;;;;;;14.68;69.11;102817.00;3610287;39;20059;-62
2022/07/08 03:16:13;;;;;;;7.43;2.67;;;;;;;14.69;69.47;102828.75;3608689;39;20325;-61
2022/07/08 03:18:38;;;;;;;7.85;2.38;;;;;;;14.62;69.71;102818.19;3601847;39;20092;-62
2022/07/08 03:21:04;;;;;;;9.57;2.40;;;;;;;14.67;69.77;102822.50;3614226;39;20063;-62
2022/07/08 03:23:31;;;;;;;7.18;2.45;;;;;;;14.74;69.32;102826.69;3612521;39;20062;-62
2022/07/08 03:25:56;;;;;;;9.20;2.75;;;;;;;14.75;69.47;102823.91;3612281;39;20457;-62
2022/07/08 03:28:22;;;;;;;9.63;2.65;;;;;;;14.70;69.17;102815.13;3609170;39;20066;-62
2022/07/08 03:30:48;;;;;;;9.38;2.38;;;;;;;14.59;69.17;102793.97;3610790;39;20063;-62
2022/07/08 03:33:14;;;;;;;10.68;2.53;;;;;;;14.68;69.13;102819.72;3608228;39;20059;-62
2022/07/08 03:35:39;;;;;;;6.28;2.60;;;;;;;14.71;69.41;102821.41;3609460;39;20266;-63
2022/07/08 03:38:05;;;;;;;8.93;2.45;;;;;;;14.67;69.07;102825.22;3607956;39;20042;-62
2022/07/08 03:43:15;;;;;;;11.48;3.10;;;;;;;14.50;69.42;102828.69;3610177;39;20116;-62
2022/07/08 03:45:40;;;;;;;8.93;2.70;;;;;;;14.46;69.99;102822.53;3606505;39;20075;-62
2022/07/08 03:48:06;;;;;;;6.22;2.40;;;;;;;14.44;69.83;102826.25;3608852;39;20425;-61
2022/07/08 03:50:31;;;;;;;8.48;2.40;;;;;;;14.40;70.24;102833.66;3610297;39;20053;-61
2022/07/08 03:52:57;;;;;;;9.43;2.75;;;;;;;14.35;69.82;102814.91;3612416;39;20111;-62
2022/07/08 03:55:25;;;;;;;11.15;2.45;;;;;;;14.34;70.49;102831.22;3599310;39;20066;-61
2022/07/08 03:57:52;;;;;;;9.07;3.15;;;;;;;14.27;70.26;102825.22;3608117;39;20261;-61
2022/07/08 04:00:22;;;;;;;9.07;2.40;;;;;;;14.13;70.41;102809.59;3609947;39;20381;-61
2022/07/08 04:02:48;;;;;;;9.23;2.67;;;;;;;14.20;70.93;102829.13;3610057;39;20058;-61
2022/07/08 04:05:14;;;;;;;9.55;2.75;;;;;;;14.17;70.64;102830.13;3605898;39;20104;-61
2022/07/08 04:07:40;;;;;;;11.57;2.90;;;;;;;14.15;71.40;102832.06;3609623;39;20054;-63
2022/07/08 04:10:07;;;;;;;4.72;2.40;;;;;;;14.13;71.09;102827.66;3608906;39;20301;-61
2022/07/08 04:12:32;;;;;;;10.05;3.42;;;;;;;14.15;71.20;102828.47;3609462;39;20046;-63
2022/07/08 04:14:59;;;;;;;6.35;2.70;;;;;;;14.03;71.02;102813.66;3612145;39;20069;-61
2022/07/08 04:17:25;;;;;;;11.50;3.15;;;;;;;14.14;71.55;102837.50;3611929;39;20055;-62
2022/07/08 04:19:50;;;;;;;9.02;2.97;;;;;;;14.04;70.87;102815.41;3612135;39;20043;-63
2022/07/08 04:22:16;;;;;;;12.02;3.05;;;;;;;14.01;71.12;102807.44;3611781;39;20059;-63
2022/07/08 04:24:41;;;;;;;7.40;3.00;;;;;;;14.12;71.29;102826.78;3608075;39;20063;-63
2022/07/08 04:27:07;;;;;;;8.10;3.05;;;;;;;14.01;71.13;102818.25;3613440;39;20063;-63
2022/07/08 04:29:33;;;;;;;7.50;2.80;;;;;;;14.12;71.19;102828.59;3612178;39;20404;-63
2022/07/08 04:31:59;;;;;;;6.55;3.35;;;;;;;14.07;71.05;102822.50;3609243;39;20053;-62
2022/07/08 04:34:24;;;;;;;8.48;3.20;;;;;;;14.09;71.04;102829.63;3613274;39;20059;-63
2022/07/08 04:36:50;;;;;;;9.70;3.25;;;;;;;14.12;71.20;102832.19;3614245;39;20088;-62
2022/07/08 04:39:16;;;;;;;7.70;3.08;;;;;;;14.12;71.15;102843.00;3612510;39;20050;-63
2022/07/08 04:41:41;;;;;;;10.55;3.75;;;;;;;13.91;71.12;102817.78;3613530;39;20148;-63
2022/07/08 04:44:07;;;;;;;9.30;3.60;;;;;;;14.13;71.08;102857.41;3612949;39;20778;-63
2022/07/08 04:46:32;;;;;;;9.25;3.40;;;;;;;14.15;70.78;102861.81;3613078;39;20061;-63
2022/07/08 04:48:58;;;;;;;7.90;3.45;;;;;;;14.03;70.84;102843.41;3612307;39;20501;-63
2022/07/08 04:51:23;;;;;;;9.13;3.92;;;;;;;14.10;70.69;102863.81;3613781;39;20065;-63
2022/07/08 04:53:49;;;;;;;11.35;4.00;;;;;;;14.07;71.05;102855.84;3612207;39;20104;-63
2022/07/08 04:56:15;;;;;;;8.88;3.45;;;;;;;14.15;71.22;102871.75;3614260;39;20107;-63
2022/07/08 04:58:41;;;;;;;10.20;4.10;;;;;;;14.09;70.92;102847.69;3612641;39;20067;-62
2022/07/08 05:01:07;;;;;;;8.93;3.65;;;;;;;14.21;70.88;102862.44;3613251;39;20066;-63
2022/07/08 05:03:33;;;;;;;7.78;3.70;;;;;;;14.23;70.98;102868.69;3614222;39;20065;-63
2022/07/08 05:05:58;;;;;;;10.13;3.55;;;;;;;14.31;70.56;102874.66;3612430;39;20361;-63
2022/07/08 05:08:24;;;;;;;11.95;3.85;;;;;;;14.34;70.67;102866.41;3610587;39;20077;-66
2022/07/08 05:10:49;;;;;;;9.35;3.70;;;;;;;13.97;70.62;102795.00;3612780;39;20433;-63
2022/07/08 05:13:15;;;;;;;11.07;3.65;;;;;;;14.31;70.55;102844.88;3614450;39;20058;-63
2022/07/08 05:15:41;;;;;;;7.18;3.55;;;;;;;14.44;70.43;102865.03;3613125;39;20624;-63
2022/07/08 05:18:06;;;;;;;10.43;3.70;;;;;;;14.53;70.42;102864.63;3612963;39;20059;-63
2022/07/08 05:20:32;;;;;;;10.13;3.83;;;;;;;14.60;70.21;102867.94;3612498;39;20433;-63
2022/07/08 05:22:58;;;;;;;10.65;3.67;;;;;;;14.62;69.49;102861.50;3611901;39;20072;-63
2022/07/08 05:25:24;;;;;;;10.20;3.47;;;;;;;14.69;69.49;102864.81;3612618;39;20385;-63
2022/07/08 05:27:49;;;;;;;18.83;4.40;;;;;;;14.84;69.08;102887.56;3612459;39;20086;-63
2022/07/08 05:30:15;;;;;;;11.27;3.60;;;;;;;14.94;68.83;102891.63;3611194;39;20266;-63
2022/07/08 05:32:41;;;;;;;12.75;3.17;;;;;;;14.93;68.08;102879.00;3612965;39;20270;-62
2022/07/08 05:35:09;;;;;;;8.32;3.35;;;;;;;15.11;68.53;102892.63;3613387;39;20274;-64
2022/07/08 05:37:38;;;;;;;8.13;3.05;;;;;;;15.17;68.76;102895.06;3612835;39;20046;-66
2022/07/08 05:40:06;;;;;;;11.73;3.10;;;;;;;15.24;68.21;102897.38;3613762;39;20470;-63
2022/07/08 05:42:32;;;;;;;10.68;3.58;;;;;;;15.26;67.47;102889.19;3615066;39;20051;-63
2022/07/08 05:44:57;;;;;;;9.73;3.33;;;;;;;15.32;67.97;102887.06;3611833;39;20089;-63
2022/07/08 05:47:23;;;;;;;10.77;3.33;;;;;;;15.41;66.99;102899.25;3614891;39;20057;-63
2022/07/08 05:49:48;;;;;;;9.45;3.22;;;;;;;15.48;67.21;102908.88;3613510;39;20062;-63
2022/07/08 05:52:14;;;;;;;8.95;3.22;;;;;;;15.55;67.25;102907.59;3611426;39;20326;-63
2022/07/08 05:54:45;;;;;;;13.15;3.65;;;;;;;15.56;67.16;102901.22;3611947;39;20073;-63
2022/07/08 05:57:12;;;;;;;8.95;3.10;;;;;;;15.63;66.68;102907.22;3613527;39;20312;-63
2022/07/08 05:59:38;;;;;;;7.60;3.33;;;;;;;15.64;66.37;102905.41;3612236;39;20398;-63
2022/07/08 06:02:04;;;;;;;7.70;3.10;;;;;;;15.76;66.81;102915.63;3611084;39;20058;-63
2022/07/08 06:04:29;;;;;;;9.20;3.17;;;;;;;15.88;66.31;102917.72;3605018;39;20143;-63
2022/07/08 06:06:56;;;;;;;11.65;3.33;;;;;;;15.90;66.04;102893.25;3610034;39;20042;-63
2022/07/08 06:09:22;;;;;;;10.13;2.70;;;;;;;16.09;64.82;102921.19;3613539;39;20120;-63
2022/07/08 06:11:48;;;;;;;10.10;2.58;;;;;;;16.13;65.38;102916.47;3610950;39;20095;-62
2022/07/08 06:14:14;;;;;;;10.68;2.97;;;;;;;16.09;64.34;102901.31;3612219;39;20074;-63
2022/07/08 06:16:40;;;;;;;12.38;3.42;;;;;;;16.23;65.32;102924.06;3610005;39;21420;-63
2022/07/08 06:19:06;;;;;;;11.23;2.63;;;;;;;16.39;65.14;102918.69;3612899;39;20066;-63
2022/07/08 06:21:32;;;;;;;9.90;2.30;;;;;;;16.50;64.17;102928.13;3613232;39;20100;-63
2022/07/08 06:23:57;;;;;;;11.55;2.53;;;;;;;16.63;64.72;102924.66;3613043;39;20047;-63
2022/07/08 06:26:23;;;;;;;10.90;2.33;;;;;;;16.85;63.92;102923.53;3609515;39;20255;-63
2022/07/08 06:28:48;;;;;;;10.68;2.40;;;;;;;17.05;63.07;102919.72;3612241;39;20093;-63
2022/07/08 06:31:14;;;;;;;11.48;2.47;;;;;;;17.20;61.91;102920.69;3612925;39;20055;-62
2022/07/08 06:33:40;;;;;;;10.00;2.17;;;;;;;17.37;61.75;102921.47;3610671;39;20051;-63
2022/07/08 06:36:06;;;;;;;7.85;1.90;;;;;;;17.53;60.60;102912.44;3612544;39;20088;-63
2022/07/08 06:38:31;;;;;;;7.38;1.85;;;;;;;17.73;59.89;102917.63;3612119;39;20067;-63
2022/07/08 06:40:57;;;;;;;8.25;2.10;;;;;;;17.73;59.28;102892.22;3612573;39;20051;-64
2022/07/08 06:43:22;;;;;;;5.82;1.80;;;;;;;18.07;58.99;102915.63;3612684;39;20616;-63
2022/07/08 06:45:48;;;;;;;6.30;1.90;;;;;;;18.20;58.13;102922.06;3611727;39;20704;-64
2022/07/08 06:48:14;;;;;;;7.53;2.50;;;;;;;18.44;57.52;102929.72;3612346;39;20123;-63
2022/07/08 06:50:40;;;;;;;8.02;1.90;;;;;;;18.52;58.10;102927.38;3611898;39;20053;-63
2022/07/08 06:53:05;;;;;;;6.90;1.98;;;;;;;18.72;57.26;102928.88;3611986;39;20305;-63
2022/07/08 06:55:31;;;;;;;10.18;1.92;;;;;;;18.78;56.82;102934.84;3613033;39;20051;-63
2022/07/08 06:57:57;;;;;;;8.15;2.00;;;;;;;18.85;56.17;102929.91;3610178;39;20058;-63
2022/07/08 07:00:23;;;;;;;6.30;2.05;;;;;;;18.99;56.23;102934.44;3611249;39;20067;-63
2022/07/08 07:02:50;;;;;;;11.73;1.95;;;;;;;19.16;55.18;102939.72;3610317;39;20095;-63
2022/07/08 07:05:19;;;;;;;6.43;1.90;;;;;;;19.33;55.65;102918.66;3612987;39;20057;-63
2022/07/08 07:07:45;;;;;;;8.23;1.67;;;;;;;19.49;53.91;102930.28;3607195;39;20047;-63
2022/07/08 07:10:11;;;;;;;8.18;1.70;;;;;;;19.58;54.17;102937.88;3610357;39;20097;-63
2022/07/08 07:12:36;;;;;;;7.55;1.63;;;;;;;19.63;54.89;102921.19;3612288;39;20047;-63
2022/07/08 07:15:02;;;;;;;7.15;1.95;;;;;;;19.79;53.97;102931.97;3600806;39;20836;-63
2022/07/08 07:17:28;;;;;;;4.60;1.60;;;;;;;19.94;53.96;102934.53;3610382;39;20287;-63
2022/07/08 07:19:54;;;;;;;5.70;1.52;;;;;;;20.06;53.36;102935.56;3613304;39;20063;-65
2022/07/08 07:22:19;;;;;;;10.02;2.00;;;;;;;19.85;52.63;102896.97;3612981;39;20055;-67
2022/07/08 07:24:45;;;;;;;7.38;2.08;;;;;;;20.23;51.02;102938.97;3611182;39;20050;-65
2022/07/08 07:27:11;;;;;;;5.13;1.73;;;;;;;20.30;51.93;102933.00;3612603;39;20126;-65
2022/07/08 07:29:36;;;;;;;6.82;1.60;;;;;;;20.46;51.72;102938.28;3610345;39;20051;-66
2022/07/08 07:32:02;;;;;;;5.80;1.67;;;;;;;20.52;51.09;102946.06;3612589;39;20067;-67
2022/07/08 07:34:28;;;;;;;7.32;1.80;;;;;;;20.43;50.42;102938.50;3612515;39;20292;-63
2022/07/08 07:36:53;;;;;;;3.90;1.20;;;;;;;20.44;51.50;102933.88;3611967;39;20290;-63
2022/07/08 07:39:19;;;;;;;11.32;2.10;;;;;;;20.38;51.13;102924.25;3612944;39;20051;-63
2022/07/08 07:41:45;;;;;;;6.97;1.85;;;;;;;20.56;51.12;102931.19;3608848;39;20054;-63
2022/07/08 07:44:10;;;;;;;7.32;1.90;;;;;;;20.71;51.26;102929.25;3612656;39;20071;-63
2022/07/08 07:46:36;;;;;;;7.25;1.70;;;;;;;20.88;50.96;102941.69;3612445;39;20046;-63
2022/07/08 07:49:03;;;;;;;8.75;1.85;;;;;;;20.95;50.07;102932.06;3613406;39;20051;-63
2022/07/08 07:51:29;;;;;;;5.22;1.65;;;;;;;20.99;50.67;102916.28;3608907;39;20094;-64
2022/07/08 07:53:54;;;;;;;6.03;1.80;;;;;;;21.02;49.69;102913.34;3612633;39;20066;-63
2022/07/08 07:56:21;;;;;;;6.82;1.48;;;;;;;21.28;50.00;102933.31;3611537;39;20413;-63
2022/07/08 07:58:47;;;;;;;10.32;2.05;;;;;;;21.44;49.12;102925.75;3608369;39;20066;-64
2022/07/08 08:01:13;;;;;;;9.73;2.15;;;;;;;21.50;47.69;102907.97;3613824;39;20059;-63
2022/07/08 08:03:38;;;;;;;6.40;1.95;;;;;;;21.69;47.69;102924.78;3612668;39;20058;-63
2022/07/08 08:06:05;;;;;;;4.40;1.63;;;;;;;21.73;46.79;102919.94;3613785;39;20046;-63
2022/07/08 08:08:31;;;;;;;6.38;2.03;;;;;;;21.82;47.35;102913.78;3614403;39;20449;-64
2022/07/08 08:10:59;;;;;;;5.55;1.70;;;;;;;22.00;47.50;102931.50;3611799;39;20349;-63
2022/07/08 08:13:24;;;;;;;8.10;2.03;;;;;;;22.11;47.42;102940.78;3595554;39;20054;-64
2022/07/08 08:15:50;;;;;;;5.18;1.67;;;;;;;22.18;46.79;102940.22;3610539;39;20067;-63
2022/07/08 08:18:16;;;;;;;8.70;1.67;;;;;;;22.18;47.33;102932.00;3611176;39;20262;-64
2022/07/08 08:20:42;;;;;;;5.32;1.48;;;;;;;22.00;47.29;102911.47;3611841;39;20058;-63
2022/07/08 08:23:09;;;;;;;6.82;1.70;;;;;;;21.92;47.49;102914.81;3614172;39;20070;-63
2022/07/08 08:25:35;;;;;;;5.85;2.03;;;;;;;22.14;47.37;102935.06;3612195;39;20100;-63
2022/07/08 08:28:03;;;;;;;6.70;1.35;;;;;;;22.39;47.04;102948.63;3612858;39;20182;-63
2022/07/08 08:30:29;;;;;;;7.07;1.80;;;;;;;22.30;46.76;102946.59;3611625;39;20474;-63
2022/07/08 08:32:55;;;;;;;5.28;1.70;;;;;;;21.96;47.20;102943.69;3610802;39;20070;-63
2022/07/08 08:35:21;;;;;;;7.15;2.05;;;;;;;21.97;47.36;102944.56;3613348;39;20043;-63
2022/07/08 08:37:47;;;;;;;9.02;2.33;;;;;;;22.14;46.46;102943.28;3614780;39;20059;-63
2022/07/08 08:40:13;;;;;;;8.40;2.05;;;;;;;22.19;48.01;102931.00;3610888;39;20075;-63
2022/07/08 08:42:42;;;;;;;7.43;2.00;;;;;;;22.43;46.23;102936.44;3611471;39;20055;-63
2022/07/08 08:45:09;;;;;;;7.55;2.13;;;;;;;22.69;46.22;102933.47;3614790;39;20057;-64
2022/07/08 08:47:36;;;;;;;8.00;2.22;;;;;;;22.65;46.83;102897.22;3613706;39;20059;-63
2022/07/08 08:51:07;;;;;;;7.25;1.80;;;;;;;23.13;45.64;102935.41;3613673;39;20073;-64
2022/07/08 08:53:03;;;;;;;5.20;1.73;;;;;;;23.38;44.89;102927.88;3605952;39;20265;-63
2022/07/08 08:55:34;;;;;;;6.07;1.58;;;;;;;23.40;44.16;102921.25;3611518;39;20070;-63
2022/07/08 08:58:03;;;;;;;6.88;1.67;;;;;;;23.54;42.69;102931.09;3610827;39;20095;-62
2022/07/08 09:00:32;;;;;;;6.45;1.50;;;;;;;23.67;41.29;102927.31;3612835;39;20059;-62
2022/07/08 09:03:00;;;;;;;7.45;1.92;;;;;;;23.95;41.32;102924.00;3613101;39;20058;-62
2022/07/08 09:05:27;;;;;;;6.85;1.80;;;;;;;24.03;43.37;102907.72;3603578;39;20414;-63
2022/07/08 09:07:54;;;;;;;8.15;1.90;;;;;;;24.18;41.97;102907.41;3613789;39;20315;-62
2022/07/08 09:10:21;;;;;;;4.82;1.60;;;;;;;24.40;41.53;102914.66;3609768;39;20047;-62
2022/07/08 09:13:10;;;;;;;7.78;1.73;;;;;;;24.58;41.33;102918.56;3611703;39;20396;-62
2022/07/08 09:15:57;;;;;;;6.47;1.90;;;;;;;24.76;39.81;102916.03;3612154;39;20373;-63
2022/07/08 09:18:38;;;;;;;7.40;1.70;;;;;;;24.93;41.32;102923.66;3613575;39;20043;-62
2022/07/08 09:21:04;;;;;;;6.65;1.90;;;;;;;25.07;40.94;102925.16;3613976;39;20597;-63
2022/07/08 09:23:38;;;;;;;7.10;2.10;;;;;;;25.18;40.57;102913.19;3610098;39;20124;-63
2022/07/08 09:26:06;;;;;;;6.88;1.95;;;;;;;25.28;41.57;102921.47;3608914;39;20070;-63
2022/07/08 09:28:43;;;;;;;5.25;2.00;;;;;;;25.35;41.02;102919.91;3610090;39;20444;-64
2022/07/08 09:31:14;;;;;;;5.85;1.92;;;;;;;25.42;39.25;102927.47;3608983;39;20086;-63
2022/07/08 09:33:42;;;;;;;4.38;1.83;;;;;;;25.54;40.95;102928.22;3609258;39;20054;-63
2022/07/08 09:36:10;;;;;;;4.88;1.88;;;;;;;25.52;40.48;102923.88;3611117;39;20066;-63
2022/07/08 09:38:40;;;;;;;10.15;1.95;;;;;;;25.42;38.60;102923.84;3614023;39;20126;-62
2022/07/08 09:41:09;;;;;;;6.72;2.00;;;;;;;25.18;41.25;102922.34;3612662;39;20055;-64
2022/07/08 09:43:49;;;;;;;9.65;2.05;;;;;;;24.97;41.40;102914.09;3611504;39;20132;-62
2022/07/08 09:46:16;;;;;;;9.05;1.92;;;;;;;24.64;41.99;102900.63;3613507;39;20073;-62
2022/07/08 09:48:42;;;;;;;6.90;2.00;;;;;;;24.46;42.99;102908.66;3613847;39;20385;-63
2022/07/08 09:51:08;;;;;;;5.60;1.75;;;;;;;24.26;41.53;102913.97;3601350;39;20090;-62
2022/07/08 09:53:39;;;;;;;7.07;1.90;;;;;;;24.31;42.97;102914.44;3610475;39;20062;-63
2022/07/08 09:56:07;;;;;;;6.05;1.83;;;;;;;24.40;42.05;102920.16;3610110;39;20482;-63
2022/07/08 09:58:35;;;;;;;7.03;1.95;;;;;;;24.29;41.73;102894.47;3610724;39;20384;-63
2022/07/08 10:01:03;;;;;;;7.22;2.00;;;;;;;24.44;42.10;102914.25;3611896;39;20174;-63
2022/07/08 10:03:30;;;;;;;8.45;2.47;;;;;;;24.59;40.73;102920.28;3611139;39;20053;-63
2022/07/08 10:05:56;;;;;;;7.10;1.73;;;;;;;24.60;43.13;102926.66;3600461;39;21008;-63
2022/07/08 10:08:23;;;;;;;6.25;1.88;;;;;;;24.77;42.39;102929.66;3607410;39;20110;-63
2022/07/08 10:10:50;;;;;;;4.80;1.83;;;;;;;24.70;42.79;102917.44;3609740;39;20059;-63
2022/07/08 10:13:20;;;;;;;5.75;1.88;;;;;;;24.72;42.98;102931.94;3609897;39;20062;-63
2022/07/08 10:15:53;;;;;;;4.55;1.83;;;;;;;24.67;43.22;102928.72;3608908;39;20585;-63
2022/07/08 10:18:40;;;;;;;7.75;1.80;;;;;;;24.62;42.63;102925.53;3611290;39;20053;-63
2022/07/08 10:21:11;;;;;;;7.65;2.10;;;;;;;24.43;42.03;102892.41;3609775;39;20078;-63
2022/07/08 10:23:45;;;;;;;6.78;2.20;;;;;;;24.28;41.23;102836.88;3607521;39;20147;-63
2022/07/08 10:26:17;;;;;;;6.15;1.60;;;;;;;24.81;42.33;102923.88;3614263;39;20039;-63
2022/07/08 10:28:42;;;;;;;6.28;1.95;;;;;;;24.84;43.50;102907.09;3611012;39;20082;-64
2022/07/08 10:31:24;;;;;;;10.10;2.28;;;;;;;24.83;44.50;102916.34;3610047;39;20080;-63
2022/07/08 10:33:58;;;;;;;6.68;1.83;;;;;;;24.75;42.82;102915.16;3610573;39;20377;-63
2022/07/08 10:36:23;;;;;;;8.93;3.60;;;;;;;25.02;44.14;102908.19;3614416;39;20062;-63
2022/07/08 10:38:50;;;;;;;6.38;1.95;;;;;;;25.38;40.33;102905.88;3611719;39;20382;-63
2022/07/08 10:41:29;;;;;;;5.32;1.85;;;;;;;25.75;41.08;102910.69;3612172;39;20043;-63
2022/07/08 10:44:01;;;;;;;6.72;1.80;;;;;;;26.21;39.79;102912.75;3606211;39;20098;-63
2022/07/08 10:46:27;;;;;;;7.05;2.10;;;;;;;26.30;41.10;102877.91;3644343;22;20116;-64
2022/07/08 10:48:58;;;;;;;4.93;1.65;;;;;;;26.69;39.08;102902.66;3586655;39;20395;-61
2022/07/08 10:51:24;;;;;;;6.25;1.80;;;;;;;26.90;40.71;102911.59;3588346;39;20055;-64
2022/07/08 10:53:57;;;;;;;5.88;2.20;;;;;;;26.98;40.25;102905.31;3585200;40;20149;-61
2022/07/08 10:57:00;;;;;;;6.28;1.80;;;;;;;27.14;37.73;102910.19;3585846;39;20356;-61
2022/07/08 10:59:29;;;;;;;8.52;1.90;;;;;;;27.26;38.97;102909.84;3585454;39;20040;-62
2022/07/08 11:02:06;;;;;;;5.10;2.17;;;;;;;27.45;36.88;102914.38;3588183;39;20059;-61
2022/07/08 11:04:35;;;;;;;5.35;1.92;;;;;;;27.36;36.31;102912.53;3589803;39;20062;-61
2022/07/08 11:07:32;;;;;;;4.95;1.70;;;;;;;27.02;37.91;102903.97;3588833;40;20070;-61
2022/07/08 11:10:08;;;;;;;7.85;1.98;;;;;;;26.74;40.32;102905.84;3588094;39;20051;-62
2022/07/08 11:13:01;;;;;;;5.32;1.80;;;;;;;26.91;38.52;102901.41;3590500;39;20109;-61
2022/07/08 11:15:29;;;;;;;4.10;1.55;;;;;;;27.24;39.78;102908.25;3587484;40;20048;-61
2022/07/08 11:17:55;;;;;;;3.35;1.50;;;;;;;27.61;37.72;102910.91;3588484;39;20043;-64
2022/07/08 11:20:20;;;;;;;7.07;1.77;;;;;;;27.89;36.16;102903.47;3591703;40;20425;-61
2022/07/08 11:22:46;;;;;;;4.30;1.50;;;;;;;28.13;37.42;102904.69;3588730;40;20054;-63
2022/07/08 11:25:15;;;;;;;4.45;1.70;;;;;;;28.33;36.82;102906.25;3587741;40;20092;-62
2022/07/08 11:27:42;;;;;;;4.65;1.55;;;;;;;28.68;37.10;102898.91;3587588;39;20422;-63